sensor_id;sensor_type;location;lat;lon;timestamp;temperature;humidity
17399;DHT22;8817;48.170;8.592;2023-04-25T00:00:27;13.60;46.00
17399;DHT22;8817;48.170;8.592;2023-04-25T00:02:54;13.60;46.00
17399;DHT22;8817;48.170;8.592;2023-04-25T00:05:22;13.60;46.00
17399;DHT22;8817;48.170;8.592;2023-04-25T00:07:51;13.60;46.00
17399;DHT22;8817;48.170;8.592;2023-04-25T00:10:18;13.60;46.10
17399;DHT22;8817;48.170;8.592;2023-04-25T00:12:45;13.60;46.70
17399;DHT22;8817;48.170;8.592;2023-04-25T00:15:13;13.60;46.10
17399;DHT22;8817;48.170;8.592;2023-04-25T00:17:40;13.60;46.10
17399;DHT22;8817;48.170;8.592;2023-04-25T00:20:08;13.70;46.20
17399;DHT22;8817;48.170;8.592;2023-04-25T00:22:36;13.70;46.20
17399;DHT22;8817;48.170;8.592;2023-04-25T00:25:05;13.70;46.20
17399;DHT22;8817;48.170;8.592;2023-04-25T00:27:33;13.70;46.20
17399;DHT22;8817;48.170;8.592;2023-04-25T00:29:59;13.70;46.30
17399;DHT22;8817;48.170;8.592;2023-04-25T00:32:26;13.70;46.20
17399;DHT22;8817;48.170;8.592;2023-04-25T00:34:54;13.70;46.20
17399;DHT22;8817;48.170;8.592;2023-04-25T00:37:21;13.70;46.30
17399;DHT22;8817;48.170;8.592;2023-04-25T00:39:48;13.80;46.20
17399;DHT22;8817;48.170;8.592;2023-04-25T00:42:16;13.80;46.20
17399;DHT22;8817;48.170;8.592;2023-04-25T00:44:43;13.80;46.20
17399;DHT22;8817;48.170;8.592;2023-04-25T00:47:11;13.80;46.20
17399;DHT22;8817;48.170;8.592;2023-04-25T00:49:38;13.80;46.20
17399;DHT22;8817;48.170;8.592;2023-04-25T00:52:05;13.80;46.20
17399;DHT22;8817;48.170;8.592;2023-04-25T00:54:32;13.70;46.10
17399;DHT22;8817;48.170;8.592;2023-04-25T00:56:59;13.70;46.00
17399;DHT22;8817;48.170;8.592;2023-04-25T00:59:28;13.70;46.00
17399;DHT22;8817;48.170;8.592;2023-04-25T01:01:56;13.70;46.00
17399;DHT22;8817;48.170;8.592;2023-04-25T01:04:23;13.70;46.10
17399;DHT22;8817;48.170;8.592;2023-04-25T01:06:50;13.60;46.00
17399;DHT22;8817;48.170;8.592;2023-04-25T01:09:19;13.60;46.00
17399;DHT22;8817;48.170;8.592;2023-04-25T01:11:46;13.50;46.00
17399;DHT22;8817;48.170;8.592;2023-04-25T01:14:13;13.50;46.00
17399;DHT22;8817;48.170;8.592;2023-04-25T01:16:41;13.50;46.10
17399;DHT22;8817;48.170;8.592;2023-04-25T01:19:09;13.40;46.00
17399;DHT22;8817;48.170;8.592;2023-04-25T01:21:39;13.40;46.00
17399;DHT22;8817;48.170;8.592;2023-04-25T01:24:06;13.30;46.00
17399;DHT22;8817;48.170;8.592;2023-04-25T01:26:34;13.30;46.00
17399;DHT22;8817;48.170;8.592;2023-04-25T01:29:03;13.30;46.10
17399;DHT22;8817;48.170;8.592;2023-04-25T01:31:30;13.30;46.20
17399;DHT22;8817;48.170;8.592;2023-04-25T01:33:57;13.30;46.20
17399;DHT22;8817;48.170;8.592;2023-04-25T01:36:24;13.20;46.20
17399;DHT22;8817;48.170;8.592;2023-04-25T01:38:53;13.20;46.20
17399;DHT22;8817;48.170;8.592;2023-04-25T01:41:21;13.20;46.20
17399;DHT22;8817;48.170;8.592;2023-04-25T01:43:48;13.20;46.30
17399;DHT22;8817;48.170;8.592;2023-04-25T01:46:16;13.20;46.30
17399;DHT22;8817;48.170;8.592;2023-04-25T01:48:43;13.20;46.40
17399;DHT22;8817;48.170;8.592;2023-04-25T01:51:10;13.20;46.40
17399;DHT22;8817;48.170;8.592;2023-04-25T01:53:38;13.20;46.50
17399;DHT22;8817;48.170;8.592;2023-04-25T01:56:07;13.20;47.10
17399;DHT22;8817;48.170;8.592;2023-04-25T01:58:33;13.20;46.50
17399;DHT22;8817;48.170;8.592;2023-04-25T02:01:00;13.20;46.50
17399;DHT22;8817;48.170;8.592;2023-04-25T02:03:27;13.20;46.50
17399;DHT22;8817;48.170;8.592;2023-04-25T02:05:54;13.20;46.50
17399;DHT22;8817;48.170;8.592;2023-04-25T02:08:21;13.20;46.50
17399;DHT22;8817;48.170;8.592;2023-04-25T02:10:48;13.20;46.50
17399;DHT22;8817;48.170;8.592;2023-04-25T02:13:16;13.20;46.50
17399;DHT22;8817;48.170;8.592;2023-04-25T02:15:43;13.20;46.50
17399;DHT22;8817;48.170;8.592;2023-04-25T02:18:10;13.20;46.50
17399;DHT22;8817;48.170;8.592;2023-04-25T02:20:37;13.20;46.50
17399;DHT22;8817;48.170;8.592;2023-04-25T02:23:04;13.20;46.50
17399;DHT22;8817;48.170;8.592;2023-04-25T02:25:31;13.20;46.50
17399;DHT22;8817;48.170;8.592;2023-04-25T02:27:58;13.20;46.50
17399;DHT22;8817;48.170;8.592;2023-04-25T02:30:26;13.20;46.50
17399;DHT22;8817;48.170;8.592;2023-04-25T02:32:53;13.20;46.50
17399;DHT22;8817;48.170;8.592;2023-04-25T02:35:20;13.20;46.50
17399;DHT22;8817;48.170;8.592;2023-04-25T02:37:47;13.10;46.40
17399;DHT22;8817;48.170;8.592;2023-04-25T02:40:13;13.10;46.40
17399;DHT22;8817;48.170;8.592;2023-04-25T02:42:40;13.10;46.40
17399;DHT22;8817;48.170;8.592;2023-04-25T02:45:10;13.00;46.30
17399;DHT22;8817;48.170;8.592;2023-04-25T02:47:39;13.00;46.40
17399;DHT22;8817;48.170;8.592;2023-04-25T02:50:06;13.00;46.30
17399;DHT22;8817;48.170;8.592;2023-04-25T02:52:33;12.90;46.30
17399;DHT22;8817;48.170;8.592;2023-04-25T02:55:00;12.90;46.30
17399;DHT22;8817;48.170;8.592;2023-04-25T02:57:27;12.80;46.20
17399;DHT22;8817;48.170;8.592;2023-04-25T02:59:54;12.80;46.20
17399;DHT22;8817;48.170;8.592;2023-04-25T03:02:21;12.70;46.30
17399;DHT22;8817;48.170;8.592;2023-04-25T03:04:49;12.70;46.40
17399;DHT22;8817;48.170;8.592;2023-04-25T03:07:16;12.70;46.40
17399;DHT22;8817;48.170;8.592;2023-04-25T03:09:43;12.60;46.30
17399;DHT22;8817;48.170;8.592;2023-04-25T03:12:10;12.60;46.30
17399;DHT22;8817;48.170;8.592;2023-04-25T03:14:37;12.60;46.20
17399;DHT22;8817;48.170;8.592;2023-04-25T03:17:03;12.50;46.20
17399;DHT22;8817;48.170;8.592;2023-04-25T03:19:30;12.40;46.20
17399;DHT22;8817;48.170;8.592;2023-04-25T03:21:59;12.30;46.20
17399;DHT22;8817;48.170;8.592;2023-04-25T03:24:25;12.30;46.20
17399;DHT22;8817;48.170;8.592;2023-04-25T03:26:52;12.20;46.20
17399;DHT22;8817;48.170;8.592;2023-04-25T03:29:19;12.20;46.30
17399;DHT22;8817;48.170;8.592;2023-04-25T03:31:50;12.10;46.20
17399;DHT22;8817;48.170;8.592;2023-04-25T03:34:16;12.10;46.30
17399;DHT22;8817;48.170;8.592;2023-04-25T03:36:43;12.00;46.30
17399;DHT22;8817;48.170;8.592;2023-04-25T03:39:12;12.00;46.40
17399;DHT22;8817;48.170;8.592;2023-04-25T03:41:38;12.00;46.40
17399;DHT22;8817;48.170;8.592;2023-04-25T03:44:05;12.00;46.40
17399;DHT22;8817;48.170;8.592;2023-04-25T03:46:32;11.90;46.90
17399;DHT22;8817;48.170;8.592;2023-04-25T03:48:59;11.90;46.40
17399;DHT22;8817;48.170;8.592;2023-04-25T03:51:26;11.90;46.90
17399;DHT22;8817;48.170;8.592;2023-04-25T03:53:53;11.90;46.40
17399;DHT22;8817;48.170;8.592;2023-04-25T03:56:21;11.80;46.40
17399;DHT22;8817;48.170;8.592;2023-04-25T03:58:48;11.80;46.30
17399;DHT22;8817;48.170;8.592;2023-04-25T04:01:15;11.80;46.30
17399;DHT22;8817;48.170;8.592;2023-04-25T04:03:42;11.70;46.30
17399;DHT22;8817;48.170;8.592;2023-04-25T04:06:09;11.70;46.40
17399;DHT22;8817;48.170;8.592;2023-04-25T04:08:36;11.70;46.50
17399;DHT22;8817;48.170;8.592;2023-04-25T04:11:03;11.60;46.50
17399;DHT22;8817;48.170;8.592;2023-04-25T04:13:31;11.60;46.60
17399;DHT22;8817;48.170;8.592;2023-04-25T04:15:58;11.60;46.70
17399;DHT22;8817;48.170;8.592;2023-04-25T04:18:25;11.60;46.70
17399;DHT22;8817;48.170;8.592;2023-04-25T04:20:52;11.60;46.70
17399;DHT22;8817;48.170;8.592;2023-04-25T04:23:19;11.60;46.70
17399;DHT22;8817;48.170;8.592;2023-04-25T04:25:48;11.60;46.80
17399;DHT22;8817;48.170;8.592;2023-04-25T04:28:15;11.60;46.80
17399;DHT22;8817;48.170;8.592;2023-04-25T04:30:44;11.60;46.90
17399;DHT22;8817;48.170;8.592;2023-04-25T04:33:12;11.70;47.00
17399;DHT22;8817;48.170;8.592;2023-04-25T04:35:41;11.70;47.00
17399;DHT22;8817;48.170;8.592;2023-04-25T04:38:08;11.70;47.00
17399;DHT22;8817;48.170;8.592;2023-04-25T04:40:36;11.70;47.10
17399;DHT22;8817;48.170;8.592;2023-04-25T04:43:03;11.80;47.10
17399;DHT22;8817;48.170;8.592;2023-04-25T04:45:30;11.80;47.10
17399;DHT22;8817;48.170;8.592;2023-04-25T04:47:58;11.90;47.20
17399;DHT22;8817;48.170;8.592;2023-04-25T04:50:25;11.90;47.20
17399;DHT22;8817;48.170;8.592;2023-04-25T04:52:53;12.00;47.30
17399;DHT22;8817;48.170;8.592;2023-04-25T04:55:20;12.10;47.30
17399;DHT22;8817;48.170;8.592;2023-04-25T04:57:47;12.10;47.80
17399;DHT22;8817;48.170;8.592;2023-04-25T05:00:15;12.20;47.30
17399;DHT22;8817;48.170;8.592;2023-04-25T05:02:42;12.20;47.30
17399;DHT22;8817;48.170;8.592;2023-04-25T05:05:10;12.30;47.30
17399;DHT22;8817;48.170;8.592;2023-04-25T05:07:37;12.30;47.20
17399;DHT22;8817;48.170;8.592;2023-04-25T05:10:05;12.30;47.20
17399;DHT22;8817;48.170;8.592;2023-04-25T05:12:32;12.30;47.10
17399;DHT22;8817;48.170;8.592;2023-04-25T05:14:58;12.30;47.10
17399;DHT22;8817;48.170;8.592;2023-04-25T05:17:25;12.40;47.20
17399;DHT22;8817;48.170;8.592;2023-04-25T05:19:52;12.40;47.10
17399;DHT22;8817;48.170;8.592;2023-04-25T05:22:20;12.40;47.20
17399;DHT22;8817;48.170;8.592;2023-04-25T05:24:47;12.40;47.20
17399;DHT22;8817;48.170;8.592;2023-04-25T05:27:17;12.40;47.10
17399;DHT22;8817;48.170;8.592;2023-04-25T05:29:44;12.40;47.10
17399;DHT22;8817;48.170;8.592;2023-04-25T05:32:11;12.40;47.10
17399;DHT22;8817;48.170;8.592;2023-04-25T05:34:38;12.40;47.10
17399;DHT22;8817;48.170;8.592;2023-04-25T05:37:05;12.40;47.80
17399;DHT22;8817;48.170;8.592;2023-04-25T05:39:33;12.50;47.30
17399;DHT22;8817;48.170;8.592;2023-04-25T05:42:00;12.50;47.30
17399;DHT22;8817;48.170;8.592;2023-04-25T05:44:29;12.50;47.40
17399;DHT22;8817;48.170;8.592;2023-04-25T05:46:56;12.50;47.40
17399;DHT22;8817;48.170;8.592;2023-04-25T05:49:23;12.60;47.50
17399;DHT22;8817;48.170;8.592;2023-04-25T05:51:50;12.60;47.50
17399;DHT22;8817;48.170;8.592;2023-04-25T05:54:17;12.60;47.40
17399;DHT22;8817;48.170;8.592;2023-04-25T05:56:45;12.70;47.40
17399;DHT22;8817;48.170;8.592;2023-04-25T05:59:12;12.70;47.40
17399;DHT22;8817;48.170;8.592;2023-04-25T06:01:39;12.70;47.40
17399;DHT22;8817;48.170;8.592;2023-04-25T06:04:06;12.70;47.40
17399;DHT22;8817;48.170;8.592;2023-04-25T06:06:33;12.70;47.40
17399;DHT22;8817;48.170;8.592;2023-04-25T06:09:00;12.70;47.40
17399;DHT22;8817;48.170;8.592;2023-04-25T06:11:27;12.70;47.40
17399;DHT22;8817;48.170;8.592;2023-04-25T06:13:55;12.80;47.40
17399;DHT22;8817;48.170;8.592;2023-04-25T06:16:22;12.70;47.40
17399;DHT22;8817;48.170;8.592;2023-04-25T06:18:51;12.70;47.30
17399;DHT22;8817;48.170;8.592;2023-04-25T06:21:18;12.80;47.90
17399;DHT22;8817;48.170;8.592;2023-04-25T06:23:45;12.70;47.30
17399;DHT22;8817;48.170;8.592;2023-04-25T06:26:11;12.70;47.30
17399;DHT22;8817;48.170;8.592;2023-04-25T06:28:38;12.70;47.30
17399;DHT22;8817;48.170;8.592;2023-04-25T06:31:07;12.70;47.40
17399;DHT22;8817;48.170;8.592;2023-04-25T06:33:34;12.70;47.40
17399;DHT22;8817;48.170;8.592;2023-04-25T06:36:00;12.70;47.30
17399;DHT22;8817;48.170;8.592;2023-04-25T06:38:27;12.70;47.30
17399;DHT22;8817;48.170;8.592;2023-04-25T06:40:54;12.70;47.20
17399;DHT22;8817;48.170;8.592;2023-04-25T06:43:21;12.60;47.10
17399;DHT22;8817;48.170;8.592;2023-04-25T06:45:48;12.60;47.10
17399;DHT22;8817;48.170;8.592;2023-04-25T06:48:16;12.60;47.30
17399;DHT22;8817;48.170;8.592;2023-04-25T06:50:43;12.50;47.30
17399;DHT22;8817;48.170;8.592;2023-04-25T06:53:10;12.50;47.30
17399;DHT22;8817;48.170;8.592;2023-04-25T06:55:37;12.50;47.30
17399;DHT22;8817;48.170;8.592;2023-04-25T06:58:04;12.50;47.40
17399;DHT22;8817;48.170;8.592;2023-04-25T07:00:30;12.50;47.40
17399;DHT22;8817;48.170;8.592;2023-04-25T07:02:59;12.50;47.40
17399;DHT22;8817;48.170;8.592;2023-04-25T07:05:27;12.50;47.40
17399;DHT22;8817;48.170;8.592;2023-04-25T07:07:54;12.50;47.40
17399;DHT22;8817;48.170;8.592;2023-04-25T07:10:21;12.50;47.40
17399;DHT22;8817;48.170;8.592;2023-04-25T07:12:48;12.50;47.40
17399;DHT22;8817;48.170;8.592;2023-04-25T07:15:15;12.40;47.40
17399;DHT22;8817;48.170;8.592;2023-04-25T07:17:42;12.40;47.40
17399;DHT22;8817;48.170;8.592;2023-04-25T07:20:09;12.40;47.40
17399;DHT22;8817;48.170;8.592;2023-04-25T07:22:38;12.30;47.40
17399;DHT22;8817;48.170;8.592;2023-04-25T07:25:06;12.30;47.40
17399;DHT22;8817;48.170;8.592;2023-04-25T07:27:34;12.20;47.40
17399;DHT22;8817;48.170;8.592;2023-04-25T07:30:01;12.20;47.40
17399;DHT22;8817;48.170;8.592;2023-04-25T07:32:28;12.20;47.40
17399;DHT22;8817;48.170;8.592;2023-04-25T07:34:55;12.10;47.40
17399;DHT22;8817;48.170;8.592;2023-04-25T07:37:22;12.10;47.40
17399;DHT22;8817;48.170;8.592;2023-04-25T07:39:50;12.00;47.30
17399;DHT22;8817;48.170;8.592;2023-04-25T07:42:17;11.90;47.30
17399;DHT22;8817;48.170;8.592;2023-04-25T07:44:44;11.90;47.30
17399;DHT22;8817;48.170;8.592;2023-04-25T07:47:11;11.80;47.20
17399;DHT22;8817;48.170;8.592;2023-04-25T07:49:39;11.70;47.30
17399;DHT22;8817;48.170;8.592;2023-04-25T07:52:06;11.60;47.10
17399;DHT22;8817;48.170;8.592;2023-04-25T07:54:33;11.50;47.10
17399;DHT22;8817;48.170;8.592;2023-04-25T07:57:01;11.40;47.10
17399;DHT22;8817;48.170;8.592;2023-04-25T07:59:28;11.30;47.10
17399;DHT22;8817;48.170;8.592;2023-04-25T08:01:55;11.20;47.10
17399;DHT22;8817;48.170;8.592;2023-04-25T08:04:23;11.10;47.10
17399;DHT22;8817;48.170;8.592;2023-04-25T08:06:50;11.00;47.10
17399;DHT22;8817;48.170;8.592;2023-04-25T08:09:18;10.90;47.10
17399;DHT22;8817;48.170;8.592;2023-04-25T08:11:45;10.90;47.30
17399;DHT22;8817;48.170;8.592;2023-04-25T08:14:13;10.80;47.30
17399;DHT22;8817;48.170;8.592;2023-04-25T08:16:40;10.70;47.40
17399;DHT22;8817;48.170;8.592;2023-04-25T08:19:07;10.70;47.60
17399;DHT22;8817;48.170;8.592;2023-04-25T08:21:34;10.70;47.70
17399;DHT22;8817;48.170;8.592;2023-04-25T08:24:01;10.80;47.80
17399;DHT22;8817;48.170;8.592;2023-04-25T08:26:28;10.70;47.90
17399;DHT22;8817;48.170;8.592;2023-04-25T08:28:55;10.80;47.90
17399;DHT22;8817;48.170;8.592;2023-04-25T08:31:23;10.80;47.90
17399;DHT22;8817;48.170;8.592;2023-04-25T08:33:50;10.80;47.90
17399;DHT22;8817;48.170;8.592;2023-04-25T08:36:17;10.90;47.90
17399;DHT22;8817;48.170;8.592;2023-04-25T08:38:44;10.90;47.90
17399;DHT22;8817;48.170;8.592;2023-04-25T08:41:11;10.90;47.90
17399;DHT22;8817;48.170;8.592;2023-04-25T08:43:42;10.90;47.90
17399;DHT22;8817;48.170;8.592;2023-04-25T08:46:09;10.90;47.90
17399;DHT22;8817;48.170;8.592;2023-04-25T08:48:40;11.00;47.90
17399;DHT22;8817;48.170;8.592;2023-04-25T08:51:10;11.00;48.00
17399;DHT22;8817;48.170;8.592;2023-04-25T08:53:42;11.00;48.00
17399;DHT22;8817;48.170;8.592;2023-04-25T08:56:10;11.00;48.00
17399;DHT22;8817;48.170;8.592;2023-04-25T08:58:40;11.10;48.00
17399;DHT22;8817;48.170;8.592;2023-04-25T09:01:07;11.10;48.00
17399;DHT22;8817;48.170;8.592;2023-04-25T09:03:34;11.10;48.00
17399;DHT22;8817;48.170;8.592;2023-04-25T09:06:03;11.10;48.00
17399;DHT22;8817;48.170;8.592;2023-04-25T09:08:30;11.10;48.10
17399;DHT22;8817;48.170;8.592;2023-04-25T09:10:57;11.20;48.10
17399;DHT22;8817;48.170;8.592;2023-04-25T09:13:25;11.20;48.10
17399;DHT22;8817;48.170;8.592;2023-04-25T09:15:54;11.20;48.20
17399;DHT22;8817;48.170;8.592;2023-04-25T09:18:24;11.20;48.20
17399;DHT22;8817;48.170;8.592;2023-04-25T09:20:52;11.20;48.20
17399;DHT22;8817;48.170;8.592;2023-04-25T09:23:23;11.30;48.30
17399;DHT22;8817;48.170;8.592;2023-04-25T09:25:52;11.30;48.30
17399;DHT22;8817;48.170;8.592;2023-04-25T09:28:23;11.40;48.30
17399;DHT22;8817;48.170;8.592;2023-04-25T09:30:55;11.40;48.90
17399;DHT22;8817;48.170;8.592;2023-04-25T09:33:28;11.40;48.40
17399;DHT22;8817;48.170;8.592;2023-04-25T09:36:02;11.40;48.50
17399;DHT22;8817;48.170;8.592;2023-04-25T09:38:31;11.50;48.50
17399;DHT22;8817;48.170;8.592;2023-04-25T09:40:59;11.60;48.60
17399;DHT22;8817;48.170;8.592;2023-04-25T09:43:27;11.70;48.70
17399;DHT22;8817;48.170;8.592;2023-04-25T09:45:54;11.70;48.70
17399;DHT22;8817;48.170;8.592;2023-04-25T09:48:26;11.70;48.60
17399;DHT22;8817;48.170;8.592;2023-04-25T09:51:07;11.80;48.60
17399;DHT22;8817;48.170;8.592;2023-04-25T09:53:36;11.80;48.60
17399;DHT22;8817;48.170;8.592;2023-04-25T09:56:05;11.80;48.60
17399;DHT22;8817;48.170;8.592;2023-04-25T09:58:33;11.90;48.70
17399;DHT22;8817;48.170;8.592;2023-04-25T10:01:02;11.90;48.70
17399;DHT22;8817;48.170;8.592;2023-04-25T10:03:30;11.90;49.30
17399;DHT22;8817;48.170;8.592;2023-04-25T10:06:00;12.00;48.70
17399;DHT22;8817;48.170;8.592;2023-04-25T10:08:31;12.00;48.70
17399;DHT22;8817;48.170;8.592;2023-04-25T10:11:02;12.10;48.80
17399;DHT22;8817;48.170;8.592;2023-04-25T10:13:30;12.10;48.90
17399;DHT22;8817;48.170;8.592;2023-04-25T10:15:58;12.20;48.90
17399;DHT22;8817;48.170;8.592;2023-04-25T10:18:25;12.20;49.00
17399;DHT22;8817;48.170;8.592;2023-04-25T10:20:54;12.30;49.10
17399;DHT22;8817;48.170;8.592;2023-04-25T10:23:21;12.30;49.10
17399;DHT22;8817;48.170;8.592;2023-04-25T10:25:49;12.40;49.20
17399;DHT22;8817;48.170;8.592;2023-04-25T10:28:18;12.50;49.30
17399;DHT22;8817;48.170;8.592;2023-04-25T10:30:58;12.60;49.30
17399;DHT22;8817;48.170;8.592;2023-04-25T10:33:36;12.60;49.20
17399;DHT22;8817;48.170;8.592;2023-04-25T10:36:10;12.60;49.10
17399;DHT22;8817;48.170;8.592;2023-04-25T10:38:38;12.70;49.20
17399;DHT22;8817;48.170;8.592;2023-04-25T10:41:06;12.70;49.10
17399;DHT22;8817;48.170;8.592;2023-04-25T10:43:37;12.80;49.20
17399;DHT22;8817;48.170;8.592;2023-04-25T10:46:18;12.80;49.20
17399;DHT22;8817;48.170;8.592;2023-04-25T10:48:47;12.90;49.30
17399;DHT22;8817;48.170;8.592;2023-04-25T10:51:19;12.90;49.30
17399;DHT22;8817;48.170;8.592;2023-04-25T10:53:56;13.00;49.30
17399;DHT22;8817;48.170;8.592;2023-04-25T10:56:25;13.10;49.30
17399;DHT22;8817;48.170;8.592;2023-04-25T10:59:04;13.10;49.30
17399;DHT22;8817;48.170;8.592;2023-04-25T11:01:36;13.20;49.30
17399;DHT22;8817;48.170;8.592;2023-04-25T11:04:03;13.20;49.30
17399;DHT22;8817;48.170;8.592;2023-04-25T11:06:37;13.30;49.40
17399;DHT22;8817;48.170;8.592;2023-04-25T11:09:11;13.30;49.60
17399;DHT22;8817;48.170;8.592;2023-04-25T11:11:39;13.50;49.70
17399;DHT22;8817;48.170;8.592;2023-04-25T11:14:07;13.60;49.70
17399;DHT22;8817;48.170;8.592;2023-04-25T11:16:34;13.70;49.80
17399;DHT22;8817;48.170;8.592;2023-04-25T11:19:02;13.80;49.60
17399;DHT22;8817;48.170;8.592;2023-04-25T11:21:30;13.80;49.60
17399;DHT22;8817;48.170;8.592;2023-04-25T11:23:57;13.90;49.60
17399;DHT22;8817;48.170;8.592;2023-04-25T11:26:24;13.90;49.50
17399;DHT22;8817;48.170;8.592;2023-04-25T11:28:52;14.00;49.40
17399;DHT22;8817;48.170;8.592;2023-04-25T11:31:25;14.00;49.40
17399;DHT22;8817;48.170;8.592;2023-04-25T11:33:53;14.00;49.30
17399;DHT22;8817;48.170;8.592;2023-04-25T11:36:22;14.10;49.40
17399;DHT22;8817;48.170;8.592;2023-04-25T11:38:49;14.10;49.40
17399;DHT22;8817;48.170;8.592;2023-04-25T11:41:17;14.10;49.40
17399;DHT22;8817;48.170;8.592;2023-04-25T11:43:44;14.20;49.40
17399;DHT22;8817;48.170;8.592;2023-04-25T11:46:11;14.20;49.20
17399;DHT22;8817;48.170;8.592;2023-04-25T11:48:40;14.20;49.20
17399;DHT22;8817;48.170;8.592;2023-04-25T11:51:07;14.20;49.10
17399;DHT22;8817;48.170;8.592;2023-04-25T11:53:35;14.20;49.00
17399;DHT22;8817;48.170;8.592;2023-04-25T11:56:09;14.20;49.00
17399;DHT22;8817;48.170;8.592;2023-04-25T11:58:54;14.20;49.10
17399;DHT22;8817;48.170;8.592;2023-04-25T12:01:28;14.20;49.20
17399;DHT22;8817;48.170;8.592;2023-04-25T12:03:57;14.20;49.20
17399;DHT22;8817;48.170;8.592;2023-04-25T12:06:26;14.30;49.30
17399;DHT22;8817;48.170;8.592;2023-04-25T12:09:01;14.30;49.30
17399;DHT22;8817;48.170;8.592;2023-04-25T12:11:30;14.30;49.20
17399;DHT22;8817;48.170;8.592;2023-04-25T12:14:02;14.30;49.10
17399;DHT22;8817;48.170;8.592;2023-04-25T12:16:29;14.30;49.10
17399;DHT22;8817;48.170;8.592;2023-04-25T12:18:58;14.30;49.10
17399;DHT22;8817;48.170;8.592;2023-04-25T12:21:28;14.30;49.10
17399;DHT22;8817;48.170;8.592;2023-04-25T12:23:56;14.40;49.30
17399;DHT22;8817;48.170;8.592;2023-04-25T12:26:23;14.40;49.80
17399;DHT22;8817;48.170;8.592;2023-04-25T12:28:51;14.40;49.30
17399;DHT22;8817;48.170;8.592;2023-04-25T12:31:17;14.40;49.30
17399;DHT22;8817;48.170;8.592;2023-04-25T12:33:44;14.50;49.30
17399;DHT22;8817;48.170;8.592;2023-04-25T12:36:14;14.50;49.30
17399;DHT22;8817;48.170;8.592;2023-04-25T12:38:42;14.50;49.30
17399;DHT22;8817;48.170;8.592;2023-04-25T12:41:09;14.60;49.40
17399;DHT22;8817;48.170;8.592;2023-04-25T12:43:36;14.60;49.40
17399;DHT22;8817;48.170;8.592;2023-04-25T12:46:03;14.70;50.00
17399;DHT22;8817;48.170;8.592;2023-04-25T12:48:30;14.70;49.30
17399;DHT22;8817;48.170;8.592;2023-04-25T12:50:57;14.70;49.20
17399;DHT22;8817;48.170;8.592;2023-04-25T12:53:26;14.70;49.30
17399;DHT22;8817;48.170;8.592;2023-04-25T12:55:53;14.80;49.40
17399;DHT22;8817;48.170;8.592;2023-04-25T12:58:19;14.80;49.30
17399;DHT22;8817;48.170;8.592;2023-04-25T13:00:46;14.90;49.40
17399;DHT22;8817;48.170;8.592;2023-04-25T13:03:13;14.90;49.30
17399;DHT22;8817;48.170;8.592;2023-04-25T13:05:41;14.90;49.20
17399;DHT22;8817;48.170;8.592;2023-04-25T13:08:08;15.00;49.10
17399;DHT22;8817;48.170;8.592;2023-04-25T13:10:37;15.00;49.00
17399;DHT22;8817;48.170;8.592;2023-04-25T13:13:04;14.90;48.90
17399;DHT22;8817;48.170;8.592;2023-04-25T13:15:31;14.90;48.90
17399;DHT22;8817;48.170;8.592;2023-04-25T13:17:58;14.90;48.90
17399;DHT22;8817;48.170;8.592;2023-04-25T13:20:25;14.90;49.00
17399;DHT22;8817;48.170;8.592;2023-04-25T13:22:52;14.90;48.90
17399;DHT22;8817;48.170;8.592;2023-04-25T13:25:19;14.90;49.00
17399;DHT22;8817;48.170;8.592;2023-04-25T13:27:48;14.90;49.10
17399;DHT22;8817;48.170;8.592;2023-04-25T13:30:15;14.90;49.20
17399;DHT22;8817;48.170;8.592;2023-04-25T13:32:42;14.90;49.40
17399;DHT22;8817;48.170;8.592;2023-04-25T13:35:11;15.00;49.70
17399;DHT22;8817;48.170;8.592;2023-04-25T13:37:39;15.10;49.60
17399;DHT22;8817;48.170;8.592;2023-04-25T13:40:08;15.20;49.60
17399;DHT22;8817;48.170;8.592;2023-04-25T13:42:37;15.20;49.50
17399;DHT22;8817;48.170;8.592;2023-04-25T13:45:06;15.40;49.40
17399;DHT22;8817;48.170;8.592;2023-04-25T13:47:34;15.40;49.30
17399;DHT22;8817;48.170;8.592;2023-04-25T13:50:02;15.40;49.30
17399;DHT22;8817;48.170;8.592;2023-04-25T13:52:29;15.50;49.30
17399;DHT22;8817;48.170;8.592;2023-04-25T13:54:56;15.50;49.30
17399;DHT22;8817;48.170;8.592;2023-04-25T13:57:23;15.50;49.40
17399;DHT22;8817;48.170;8.592;2023-04-25T13:59:51;15.60;49.90
17399;DHT22;8817;48.170;8.592;2023-04-25T14:02:19;15.60;49.40
17399;DHT22;8817;48.170;8.592;2023-04-25T14:04:46;15.70;49.20
17399;DHT22;8817;48.170;8.592;2023-04-25T14:07:14;15.70;49.10
17399;DHT22;8817;48.170;8.592;2023-04-25T14:09:41;15.80;49.20
17399;DHT22;8817;48.170;8.592;2023-04-25T14:12:08;15.80;49.20
17399;DHT22;8817;48.170;8.592;2023-04-25T14:14:35;15.90;49.20
17399;DHT22;8817;48.170;8.592;2023-04-25T14:17:03;15.80;49.10
17399;DHT22;8817;48.170;8.592;2023-04-25T14:19:31;15.80;48.90
17399;DHT22;8817;48.170;8.592;2023-04-25T14:21:58;15.90;48.80
17399;DHT22;8817;48.170;8.592;2023-04-25T14:24:25;15.80;48.70
17399;DHT22;8817;48.170;8.592;2023-04-25T14:26:52;15.90;48.70
17399;DHT22;8817;48.170;8.592;2023-04-25T14:29:19;15.80;48.70
17399;DHT22;8817;48.170;8.592;2023-04-25T14:31:47;15.80;48.80
17399;DHT22;8817;48.170;8.592;2023-04-25T14:34:14;15.80;48.60
17399;DHT22;8817;48.170;8.592;2023-04-25T14:36:42;15.70;48.50
17399;DHT22;8817;48.170;8.592;2023-04-25T14:39:09;15.80;48.60
17399;DHT22;8817;48.170;8.592;2023-04-25T14:41:38;15.70;48.70
17399;DHT22;8817;48.170;8.592;2023-04-25T14:44:05;15.70;48.70
17399;DHT22;8817;48.170;8.592;2023-04-25T14:46:32;15.70;48.70
17399;DHT22;8817;48.170;8.592;2023-04-25T14:48:59;15.70;48.60
17399;DHT22;8817;48.170;8.592;2023-04-25T14:51:26;15.70;48.50
17399;DHT22;8817;48.170;8.592;2023-04-25T14:53:54;15.60;48.30
17399;DHT22;8817;48.170;8.592;2023-04-25T14:56:21;15.60;48.20
17399;DHT22;8817;48.170;8.592;2023-04-25T14:58:48;15.50;48.20
17399;DHT22;8817;48.170;8.592;2023-04-25T15:01:15;15.50;48.30
17399;DHT22;8817;48.170;8.592;2023-04-25T15:03:42;15.40;48.40
17399;DHT22;8817;48.170;8.592;2023-04-25T15:06:09;15.40;48.50
17399;DHT22;8817;48.170;8.592;2023-04-25T15:08:36;15.40;48.60
17399;DHT22;8817;48.170;8.592;2023-04-25T15:11:04;15.40;48.70
17399;DHT22;8817;48.170;8.592;2023-04-25T15:13:31;15.40;48.80
17399;DHT22;8817;48.170;8.592;2023-04-25T15:16:00;15.40;48.80
17399;DHT22;8817;48.170;8.592;2023-04-25T15:18:27;15.40;48.70
17399;DHT22;8817;48.170;8.592;2023-04-25T15:20:54;15.40;48.60
17399;DHT22;8817;48.170;8.592;2023-04-25T15:23:21;15.40;48.80
17399;DHT22;8817;48.170;8.592;2023-04-25T15:25:50;15.40;49.00
17399;DHT22;8817;48.170;8.592;2023-04-25T15:28:18;15.40;49.20
17399;DHT22;8817;48.170;8.592;2023-04-25T15:30:47;15.40;49.10
17399;DHT22;8817;48.170;8.592;2023-04-25T15:33:13;15.40;49.20
17399;DHT22;8817;48.170;8.592;2023-04-25T15:35:41;15.50;49.20
17399;DHT22;8817;48.170;8.592;2023-04-25T15:38:08;15.50;49.10
17399;DHT22;8817;48.170;8.592;2023-04-25T15:40:36;15.60;49.10
17399;DHT22;8817;48.170;8.592;2023-04-25T15:43:03;15.60;49.00
17399;DHT22;8817;48.170;8.592;2023-04-25T15:45:31;15.60;49.10
17399;DHT22;8817;48.170;8.592;2023-04-25T15:47:58;15.60;48.90